Time;durP1;ratioP1;P1;durP2;ratioP2;P2;SDS_P1;SDS_P2;PMS_P1;PMS_P2;Temp;Humidity;BMP_temperature;BMP_pressure;BME280_temperature;BME280_humidity;BME280_pressure;Samples;Min_cycle;Max_cycle;Signal;HPM_P1;HPM_P2
2022/05/30 00:01:08;;;;;;;22.70;15.52;;;27.30;99.90;;;;;;4160123;28;20411;-69
2022/05/30 00:03:14;;;;;;;22.73;16.42;;;27.30;99.90;;;;;;4159410;28;20045;-69
2022/05/30 00:05:29;;;;;;;18.07;15.93;;;27.30;99.90;;;;;;4158485;28;20073;-70
2022/05/30 00:07:36;;;;;;;19.90;15.10;;;27.30;99.90;;;;;;4167224;28;20040;-69
2022/05/30 00:09:41;;;;;;;21.45;15.60;;;27.30;99.90;;;;;;4164887;28;20054;-69
2022/05/30 00:11:48;;;;;;;19.48;15.80;;;27.40;99.90;;;;;;4164020;28;20168;-69
2022/05/30 00:13:53;;;;;;;20.10;16.33;;;27.30;99.90;;;;;;4168578;28;20037;-69
2022/05/30 00:16:13;;;;;;;19.52;15.65;;;27.40;99.90;;;;;;4165830;28;20041;-69
2022/05/30 00:18:22;;;;;;;24.10;15.70;;;27.50;99.90;;;;;;4187987;28;20051;-69
2022/05/30 00:20:28;;;;;;;20.95;15.95;;;27.50;99.90;;;;;;4154654;28;20038;-68
2022/05/30 00:22:33;;;;;;;20.90;15.02;;;27.50;99.90;;;;;;4168081;28;20156;-68
2022/05/30 00:24:39;;;;;;;26.08;17.67;;;27.50;99.90;;;;;;4161975;28;20409;-68
2022/05/30 00:26:46;;;;;;;22.50;17.05;;;27.60;99.90;;;;;;4188552;28;20045;-70
2022/05/30 00:28:52;;;;;;;22.60;15.48;;;27.60;99.90;;;;;;4188797;28;20474;-68
2022/05/30 00:30:59;;;;;;;21.23;15.35;;;27.60;99.90;;;;;;4083656;28;20043;-67
2022/05/30 00:33:06;;;;;;;24.27;16.52;;;27.60;99.90;;;;;;4188343;28;20586;-67
2022/05/30 00:35:15;;;;;;;23.98;17.10;;;27.70;99.90;;;;;;4161143;28;20056;-67
2022/05/30 00:37:25;;;;;;;24.70;16.90;;;27.70;99.90;;;;;;4178993;28;20126;-69
2022/05/30 00:39:34;;;;;;;26.10;17.17;;;27.70;99.90;;;;;;4170466;28;20042;-67
2022/05/30 00:41:40;;;;;;;24.55;16.42;;;27.80;99.90;;;;;;4162270;28;20122;-67
2022/05/30 00:43:49;;;;;;;23.15;17.42;;;27.80;99.90;;;;;;4161796;28;20073;-68
2022/05/30 00:46:15;;;;;;;22.98;16.42;;;27.90;99.90;;;;;;4163636;28;20045;-68
2022/05/30 00:48:22;;;;;;;22.95;15.30;;;28.00;99.90;;;;;;4165260;28;20041;-69
2022/05/30 00:50:29;;;;;;;24.30;16.10;;;28.00;99.90;;;;;;4090146;28;20048;-69
2022/05/30 00:52:40;;;;;;;23.45;14.98;;;28.00;99.90;;;;;;4146155;28;20053;-68
2022/05/30 00:55:01;;;;;;;22.02;13.85;;;28.10;99.90;;;;;;4170510;28;20041;-68
2022/05/30 00:57:23;;;;;;;25.05;14.07;;;28.10;99.90;;;;;;4162346;28;20057;-68
2022/05/30 00:59:33;;;;;;;23.45;13.57;;;28.10;99.90;;;;;;4153367;28;20049;-68
2022/05/30 01:01:38;;;;;;;19.05;13.45;;;28.10;99.90;;;;;;4156784;28;20148;-68
2022/05/30 01:08:33;;;;;;;23.10;14.20;;;28.20;99.90;;;;;;4162611;28;20534;-68
2022/05/30 01:10:42;;;;;;;24.40;13.88;;;28.30;99.90;;;;;;4146749;28;20071;-68
2022/05/30 01:12:52;;;;;;;25.10;13.60;;;28.30;99.90;;;;;;4162200;28;20049;-68
2022/05/30 01:15:00;;;;;;;35.45;13.85;;;28.30;99.90;;;;;;4147565;28;20041;-68
2022/05/30 01:17:10;;;;;;;21.58;13.70;;;28.30;99.90;;;;;;4139910;28;20540;-68
2022/05/30 01:19:43;;;;;;;21.88;12.52;;;28.30;99.90;;;;;;4168393;28;20073;-69
2022/05/30 01:22:08;;;;;;;20.90;11.95;;;28.40;99.90;;;;;;4162843;28;20053;-69
2022/05/30 01:24:40;;;;;;;22.85;12.82;;;28.50;99.90;;;;;;4159530;28;20044;-68
2022/05/30 01:27:17;;;;;;;19.75;12.10;;;28.50;99.90;;;;;;4164018;28;20479;-68
2022/05/30 01:29:47;;;;;;;21.80;12.10;;;28.60;99.90;;;;;;4160808;28;20612;-68
2022/05/30 01:31:55;;;;;;;20.25;11.55;;;28.60;99.90;;;;;;4163401;28;20124;-68
2022/05/30 01:34:02;;;;;;;20.77;10.25;;;28.60;99.90;;;;;;4170135;28;20140;-68
2022/05/30 01:36:09;;;;;;;18.73;9.43;;;28.60;99.90;;;;;;4160840;28;20397;-68
2022/05/30 01:38:20;;;;;;;16.70;9.20;;;28.60;99.90;;;;;;4161988;28;20049;-68
2022/05/30 01:40:32;;;;;;;15.25;9.07;;;28.60;99.90;;;;;;4147718;28;20362;-68
2022/05/30 01:42:38;;;;;;;17.90;9.02;;;28.70;99.90;;;;;;4146571;28;20050;-68
2022/05/30 01:44:45;;;;;;;17.90;9.60;;;28.70;99.90;;;;;;4155300;28;20119;-68
